메인 페이지
METAR-TAF:

METAR-TAF

공항 :

망갈로르, 인도

위도: 12-55N, 경도: 074-53E, 고도: 102m

현재 날씨관측

예보는 25분 전, 00:00시(UTC)에 발표되었습니다.
4kt
온도 24°C
습도 89%
기압 1008 hPa
시정: 6000m
고도 1500ft 상공 구름 조금

METAR: VOML 220000Z 09004KT 6000 FEW015 24/22 Q1008 NOSIG

시각: 05:55 (00:25 UTC)

예보

예보는 1 시간 25분 전, 23:00시(UTC)에 발표되었습니다.
예보 대상 시간: 22일 00시부터 23일 06시까지 (UTC)
여러 방향의 바람 2kt
시정: 6000m
고도 1200ft 상공 구름 보통
일시적
22일 00시부터 22일 03시까지 (UTC)
시정: 3000m
고도 400ft 상공 구름 보통
박무
전환 중
22일 06시부터 22일 07시까지 (UTC)
서북서10kt
전환 중
22일 18시부터 22일 19시까지 (UTC)
여러 방향의 바람 2kt
일시적
23일 00시부터 23일 03시까지 (UTC)
시정: 3000m
고도 400ft 상공 구름 보통
박무

TAF: VOML 212300Z 2200/2306 VRB02KT 6000 SCT012 TEMPO 2200/2203 3000 BR SCT004 BECMG 2206/2207 29010KT BECMG 2218/2219 VRB02KT TEMPO 2300/2303 3000 BR SCT004

4,000개 이상의 공항 관측 자료 및 예보 (METAR 및 TAF 보고).

지도상에서 검색 가능한 기상관측소가 노란 점과 빨간 점으로 표시되어 있습니다.

기상관측소 명을 보려면 표시 위로 마우스를 이동하세요.

날씨 관측과 예보를 보려면 클릭하세요.

지도 변경 : 확대하려면 엑스 표시가 있는 녹색 버튼, 축소하려면 빼기 표시가 있는 녹색 버튼, 다음 페이지의 지도를 보려면 녹색 화살표를 클릭하세요.


METAR-TAF: